Terminal Aerodrome Forecast
Issued by NWS

Home | Current Version | Previous Version | Text Only | Print | Product List | Glossary On
Versions: 1 2 3 4 5 6 7 8 9 10 11 12 13 14 15 16 17 18 19 20 21 22
233
FTUS43 KDLH 270521
TAFHIB
TAF
KHIB 270521Z 2706/2806 00000KT P6SM SCT070
      TEMPO 2708/2711 5SM BR
     FM271700 27008KT P6SM BKN090
     FM280100 22004KT P6SM SCT070 BKN120=

USA.gov is the U.S. government's official web portal to all federal, state and local government web resources and services.